Watauga, Tennessee
Current Conditions -  °F | °C
As of 2:15 PM on Friday 28 Nov 2014 (Local Time) from K0A9 Reporting Station
Clear Clear  
Wind Chill: -2°   Ceiling: Unl
Heat Index:   Visibility: 10mi
Dew Point: -8°   Wind: 7mph
Humidity: 52%   Direction: NA
Pressure: 30.29"   Gusts: NA
Location:  36.37°N, 82.3°W
Report Text: K0A9 281915Z AUTO VRB06KT 10SM CLR 01/M08 A3029 RMK
Loading
Personal Weather Stations






























Interactive Weather Map New forecast layout! Learn more

10-Day Weather Forecast

Advertisements
Track Severe Weather on mobile